createdAt,value
2019-05-14T00:01:53.033Z,71.40
2019-05-14T00:04:23.203Z,71.50
2019-05-14T00:06:53.399Z,71.50
2019-05-14T00:09:23.341Z,71.80
2019-05-14T00:11:53.246Z,71.80
2019-05-14T00:14:35.675Z,72.40
2019-05-14T00:16:55.274Z,72.70
2019-05-14T00:19:25.458Z,72.20
2019-05-14T00:21:55.586Z,72.60
2019-05-14T00:24:26.384Z,72.70
2019-05-14T00:26:56.224Z,72.70
2019-05-14T00:29:26.395Z,72.70
2019-05-14T00:31:56.628Z,72.20
2019-05-14T00:34:26.546Z,72.30
2019-05-14T00:36:56.785Z,72.50
2019-05-14T00:39:26.904Z,72.90
2019-05-14T00:41:56.972Z,72.80
2019-05-14T00:44:26.880Z,72.70
2019-05-14T00:46:57.157Z,72.80
2019-05-14T00:49:27.033Z,72.50
2019-05-14T00:51:57.301Z,72.90
2019-05-14T00:54:27.447Z,72.90
2019-05-14T00:56:57.647Z,72.70
2019-05-14T00:59:27.732Z,72.80
2019-05-14T01:01:58.866Z,73.10
2019-05-14T01:04:29.039Z,73.20
2019-05-14T01:07:01.400Z,73.50
2019-05-14T01:09:31.472Z,73.60
2019-05-14T01:12:01.923Z,74.00
2019-05-14T01:14:32.173Z,74.30
2019-05-14T01:17:02.305Z,74.10
2019-05-14T01:19:33.167Z,74.10
2019-05-14T01:22:03.358Z,74.70
2019-05-14T01:24:33.310Z,74.80
2019-05-14T01:27:03.165Z,75.00
2019-05-14T01:29:33.061Z,75.20
2019-05-14T01:32:04.302Z,75.30
2019-05-14T01:34:34.177Z,75.20
2019-05-14T01:37:04.362Z,74.60
2019-05-14T01:39:34.431Z,74.30
2019-05-14T01:42:04.335Z,74.70
2019-05-14T01:44:34.407Z,74.80
2019-05-14T01:47:04.576Z,74.70
2019-05-14T01:49:34.726Z,75.40
2019-05-14T01:52:06.836Z,75.30
2019-05-14T01:54:36.930Z,75.20
2019-05-14T01:57:07.054Z,75.50
2019-05-14T01:59:37.139Z,75.30
2019-05-14T02:02:11.840Z,74.80
2019-05-14T02:04:42.788Z,74.90
2019-05-14T02:07:16.063Z,75.50
2019-05-14T02:09:44.990Z,76.50
2019-05-14T02:12:15.192Z,75.70
2019-05-14T02:14:45.326Z,75.70
2019-05-14T02:17:15.420Z,75.50
2019-05-14T02:19:45.558Z,75.90
2019-05-14T02:22:16.676Z,75.70
2019-05-14T02:24:46.727Z,75.90
2019-05-14T02:27:16.843Z,76.80
2019-05-14T02:29:46.963Z,76.60
2019-05-14T02:32:18.462Z,75.90
2019-05-14T02:34:49.953Z,76.00
2019-05-14T02:37:20.160Z,76.40
2019-05-14T02:39:50.494Z,76.30
2019-05-14T02:42:22.653Z,75.40
2019-05-14T02:44:52.849Z,76.00
2019-05-14T02:47:22.977Z,76.40
2019-05-14T02:49:53.085Z,76.70
2019-05-14T02:52:23.188Z,77.60
2019-05-14T02:54:53.079Z,77.10
2019-05-14T02:57:23.147Z,77.30
2019-05-14T02:59:53.267Z,77.40
2019-05-14T03:02:23.374Z,76.80
2019-05-14T03:04:53.403Z,76.70
2019-05-14T03:07:23.669Z,76.10
2019-05-14T03:09:53.903Z,76.50
2019-05-14T03:12:23.992Z,76.20
2019-05-14T03:14:54.220Z,75.80
2019-05-14T03:17:24.392Z,76.00
2019-05-14T03:19:54.624Z,76.40
2019-05-14T03:22:31.818Z,76.30
2019-05-14T03:24:59.632Z,76.40
2019-05-14T03:27:30.457Z,76.80
2019-05-14T03:30:00.446Z,77.30
2019-05-14T03:32:33.401Z,76.80
2019-05-14T03:35:05.153Z,77.20
2019-05-14T03:37:35.433Z,76.80
2019-05-14T03:40:09.217Z,77.00
2019-05-14T03:42:40.127Z,77.20
2019-05-14T03:45:10.836Z,76.70
2019-05-14T03:47:41.144Z,76.50
2019-05-14T03:50:30.662Z,76.30
2019-05-14T03:53:01.852Z,76.30
2019-05-14T03:55:31.866Z,76.50
2019-05-14T03:58:01.844Z,76.70
2019-05-14T04:00:50.595Z,76.80
2019-05-14T04:03:25.154Z,77.00
2019-05-14T04:05:59.530Z,77.00
2019-05-14T04:08:31.031Z,77.00
2019-05-14T04:11:01.513Z,77.20
2019-05-14T04:13:33.588Z,76.70
2019-05-14T04:16:03.951Z,76.80
2019-05-14T04:18:40.392Z,77.10
2019-05-14T04:21:10.989Z,77.00
2019-05-14T04:23:45.799Z,76.40
2019-05-14T04:26:20.930Z,76.80
2019-05-14T04:28:51.957Z,76.50
2019-05-14T04:31:22.363Z,76.50
2019-05-14T04:33:54.224Z,76.30
2019-05-14T04:36:24.556Z,76.20
2019-05-14T04:38:55.421Z,76.20
2019-05-14T04:41:25.529Z,75.80
2019-05-14T04:43:59.481Z,75.70
2019-05-14T04:46:30.207Z,75.80
2019-05-14T04:49:00.815Z,75.40
2019-05-14T04:51:30.776Z,75.90
2019-05-14T04:54:01.075Z,75.90
2019-05-14T04:56:31.337Z,75.90
2019-05-14T04:59:01.582Z,76.20
2019-05-14T05:01:31.893Z,75.90
2019-05-14T05:04:02.219Z,76.40
2019-05-14T05:06:32.344Z,76.40
2019-05-14T05:09:02.561Z,76.20
2019-05-14T05:11:32.883Z,75.80
2019-05-14T05:14:02.792Z,75.60
2019-05-14T05:16:32.885Z,75.00
2019-05-14T05:19:03.020Z,75.00
2019-05-14T05:21:33.262Z,75.40
2019-05-14T05:24:03.299Z,75.50
2019-05-14T05:26:33.554Z,75.20
2019-05-14T05:29:07.199Z,74.90
2019-05-14T05:31:37.958Z,75.00
2019-05-14T05:34:08.980Z,74.30
2019-05-14T05:36:39.252Z,74.20
2019-05-14T05:39:09.445Z,74.50
2019-05-14T05:41:39.364Z,73.90
2019-05-14T05:44:09.476Z,73.90
2019-05-14T05:46:39.377Z,72.90
2019-05-14T05:49:09.561Z,72.00
2019-05-14T05:51:39.742Z,71.80
2019-05-14T05:54:10.119Z,71.00
2019-05-14T05:56:40.081Z,69.80
2019-05-14T05:59:11.274Z,69.50
2019-05-14T06:01:46.261Z,68.20
2019-05-14T06:04:14.261Z,67.50
2019-05-14T06:06:44.372Z,68.00
2019-05-14T06:09:14.534Z,67.70
2019-05-14T06:11:44.353Z,67.10
2019-05-14T06:14:14.499Z,66.80
2019-05-14T06:16:44.814Z,67.40
2019-05-14T06:19:14.972Z,66.20
2019-05-14T06:21:55.761Z,65.50
2019-05-14T06:24:45.360Z,65.20
2019-05-14T06:27:17.728Z,64.60
2019-05-14T06:29:48.935Z,65.00
2019-05-14T06:32:18.990Z,63.50
2019-05-14T06:34:49.234Z,63.70
2019-05-14T06:37:20.299Z,62.50
2019-05-14T06:39:50.596Z,61.40
2019-05-14T06:42:20.765Z,61.30
2019-05-14T06:44:50.691Z,61.00
2019-05-14T06:47:20.782Z,60.20
2019-05-14T06:49:50.923Z,60.10
2019-05-14T06:52:20.751Z,60.40
2019-05-14T06:54:50.869Z,59.10
2019-05-14T06:57:20.844Z,59.60
2019-05-14T06:59:51.036Z,58.90
2019-05-14T07:02:21.005Z,58.70
2019-05-14T07:04:50.849Z,59.50
2019-05-14T07:07:20.927Z,57.70
2019-05-14T07:09:51.040Z,57.60
2019-05-14T07:12:21.178Z,57.70
2019-05-14T07:14:51.492Z,58.20
2019-05-14T07:17:21.606Z,58.80
2019-05-14T07:19:51.803Z,57.80
2019-05-14T07:22:21.962Z,57.20
2019-05-14T07:24:51.814Z,57.30
2019-05-14T07:27:21.935Z,56.40
2019-05-14T07:29:52.103Z,55.70
2019-05-14T07:32:21.963Z,54.60
2019-05-14T07:34:52.138Z,54.30
2019-05-14T07:37:22.294Z,54.70
2019-05-14T07:39:52.159Z,54.90
2019-05-14T07:42:22.374Z,54.80
2019-05-14T07:44:52.483Z,53.70
2019-05-14T07:47:22.604Z,53.50
2019-05-14T07:49:52.458Z,53.80
2019-05-14T07:52:22.597Z,53.60
2019-05-14T07:54:52.708Z,52.10
2019-05-14T07:57:22.913Z,51.40
2019-05-14T07:59:53.072Z,52.80
2019-05-14T08:02:23.292Z,50.20
2019-05-14T08:04:53.400Z,51.40
2019-05-14T08:07:23.591Z,49.30
2019-05-14T08:09:53.409Z,49.10
2019-05-14T08:12:23.664Z,49.00
2019-05-14T08:15:13.121Z,49.30
2019-05-14T08:17:28.078Z,48.80
2019-05-14T08:19:58.321Z,48.20
2019-05-14T08:22:29.156Z,48.90
2019-05-14T08:24:59.272Z,48.30
2019-05-14T08:27:31.054Z,46.40
2019-05-14T08:30:01.491Z,47.10
2019-05-14T08:32:31.697Z,46.50
2019-05-14T08:35:02.062Z,46.60
2019-05-14T08:37:32.044Z,46.50
2019-05-14T08:40:02.138Z,45.20
2019-05-14T08:42:34.031Z,44.10
2019-05-14T08:45:10.589Z,46.10
2019-05-14T08:47:39.021Z,42.80
2019-05-14T08:50:09.880Z,44.00
2019-05-14T08:52:39.740Z,44.00
2019-05-14T08:55:13.806Z,43.30
2019-05-14T08:57:41.853Z,42.40
2019-05-14T09:00:13.985Z,42.60
2019-05-14T09:02:43.786Z,41.90
2019-05-14T09:05:13.823Z,40.60
2019-05-14T09:07:44.047Z,41.20
2019-05-14T09:10:33.683Z,40.10
2019-05-14T09:13:03.787Z,39.40
2019-05-14T09:15:34.064Z,39.60
2019-05-14T09:18:04.229Z,39.20
2019-05-14T09:20:34.447Z,38.20
2019-05-14T09:23:04.807Z,38.30
2019-05-14T09:25:45.559Z,40.20
2019-05-14T09:28:09.042Z,38.60
2019-05-14T09:30:39.419Z,38.90
2019-05-14T09:33:10.085Z,39.20
2019-05-14T09:35:40.091Z,36.00
2019-05-14T09:38:10.203Z,35.50
2019-05-14T09:40:40.337Z,35.20
2019-05-14T09:43:11.376Z,35.30
2019-05-14T09:45:41.217Z,36.00
2019-05-14T09:48:11.473Z,34.30
2019-05-14T09:50:41.754Z,35.00
2019-05-14T09:53:12.076Z,33.60
2019-05-14T09:55:42.311Z,33.90
2019-05-14T09:58:12.522Z,34.70
2019-05-14T10:00:43.772Z,32.30
2019-05-14T10:03:13.948Z,32.60
2019-05-14T10:05:44.255Z,32.00
2019-05-14T10:08:14.243Z,33.00
2019-05-14T10:10:44.229Z,31.20
2019-05-14T10:13:14.295Z,31.80
2019-05-14T10:15:44.426Z,32.40
2019-05-14T10:18:14.650Z,33.50
2019-05-14T10:20:46.123Z,34.20
2019-05-14T10:23:18.867Z,35.10
2019-05-14T10:25:48.733Z,36.00
2019-05-14T10:28:19.329Z,32.10
2019-05-14T10:30:49.695Z,29.90
2019-05-14T10:33:19.853Z,30.40
2019-05-14T10:35:49.719Z,29.20
2019-05-14T10:38:19.631Z,28.90
2019-05-14T10:40:49.524Z,28.70
2019-05-14T10:43:19.641Z,29.60
2019-05-14T10:45:49.942Z,29.70
2019-05-14T10:48:19.898Z,29.30
2019-05-14T10:50:57.334Z,29.10
2019-05-14T10:53:22.017Z,29.60
2019-05-14T10:55:51.957Z,28.80
2019-05-14T10:58:22.107Z,29.40
2019-05-14T11:00:52.233Z,26.30
2019-05-14T11:03:22.524Z,29.10
2019-05-14T11:05:52.442Z,28.70
2019-05-14T11:08:22.357Z,27.60
2019-05-14T11:10:52.316Z,25.80
2019-05-14T11:13:22.507Z,26.50
2019-05-14T11:15:52.713Z,28.20
2019-05-14T11:18:22.865Z,27.10
2019-05-14T11:20:52.763Z,26.40
2019-05-14T11:23:23.016Z,25.20
2019-05-14T11:25:52.951Z,25.90
2019-05-14T11:28:22.973Z,26.20
2019-05-14T11:30:52.852Z,26.50
2019-05-14T11:33:22.708Z,27.50
2019-05-14T11:35:52.917Z,27.10
2019-05-14T11:38:33.861Z,29.10
2019-05-14T11:40:59.119Z,27.40
2019-05-14T11:43:32.446Z,27.70
2019-05-14T11:46:02.743Z,27.30
2019-05-14T11:48:32.983Z,25.80
2019-05-14T11:51:03.336Z,24.80
2019-05-14T11:53:34.702Z,25.00
2019-05-14T11:56:08.642Z,24.70
2019-05-14T11:58:40.116Z,24.60
2019-05-14T12:01:10.435Z,25.20
2019-05-14T12:03:40.982Z,26.40
2019-05-14T12:06:11.194Z,25.70
2019-05-14T12:08:41.981Z,25.50
2019-05-14T12:11:12.640Z,24.90
2019-05-14T12:13:42.778Z,24.50
2019-05-14T12:16:12.776Z,24.80
2019-05-14T12:18:43.027Z,25.70
2019-05-14T12:21:13.346Z,25.90
2019-05-14T12:23:43.324Z,26.00
2019-05-14T12:26:13.519Z,26.50
2019-05-14T12:28:43.719Z,25.60
2019-05-14T12:31:14.028Z,26.20
2019-05-14T12:33:45.154Z,25.30
2019-05-14T12:36:15.147Z,26.00
2019-05-14T12:38:45.313Z,26.70
2019-05-14T12:41:19.078Z,26.40
2019-05-14T12:43:50.265Z,25.50
2019-05-14T12:46:29.456Z,28.00
2019-05-14T12:49:00.125Z,26.30
2019-05-14T12:51:30.300Z,24.50
2019-05-14T12:54:00.416Z,25.50
2019-05-14T12:56:30.852Z,25.30
2019-05-14T12:59:08.539Z,25.00
2019-05-14T13:01:38.962Z,24.50
2019-05-14T13:04:09.213Z,26.00
2019-05-14T13:06:40.138Z,26.50
2019-05-14T13:09:10.209Z,24.40
2019-05-14T13:11:41.810Z,25.60
2019-05-14T13:14:12.066Z,24.50
2019-05-14T13:16:42.013Z,23.20
2019-05-14T13:19:18.964Z,23.10
2019-05-14T13:22:13.586Z,23.90
2019-05-14T13:24:58.144Z,23.30
2019-05-14T13:27:28.771Z,22.70
2019-05-14T13:29:59.308Z,23.70
2019-05-14T13:32:53.591Z,25.10
2019-05-14T13:35:23.777Z,26.80
2019-05-14T13:37:54.075Z,26.50
2019-05-14T13:40:24.452Z,25.80
2019-05-14T13:42:54.902Z,25.30
2019-05-14T13:45:25.580Z,25.70
2019-05-14T13:47:55.827Z,25.60
2019-05-14T13:50:29.054Z,24.40
2019-05-14T13:53:02.315Z,24.70
2019-05-14T13:55:30.631Z,26.20
2019-05-14T13:58:01.206Z,24.80
2019-05-14T14:00:31.533Z,24.90
2019-05-14T14:03:01.760Z,25.80
2019-05-14T14:05:39.342Z,26.20
2019-05-14T14:08:11.289Z,27.00
2019-05-14T14:10:45.779Z,26.80
2019-05-14T14:13:13.652Z,26.80
2019-05-14T14:15:45.519Z,27.20
2019-05-14T14:18:15.943Z,27.70
2019-05-14T14:20:48.698Z,26.30
2019-05-14T14:23:26.483Z,25.30
2019-05-14T14:25:54.530Z,25.80
2019-05-14T14:28:21.677Z,25.80
2019-05-14T14:30:51.825Z,25.50
2019-05-14T14:33:22.081Z,25.70
2019-05-14T14:35:52.306Z,25.10
2019-05-14T14:38:22.350Z,24.50
2019-05-14T14:40:58.116Z,24.40
2019-05-14T14:43:29.201Z,24.70
2019-05-14T14:45:59.940Z,24.00
2019-05-14T14:48:30.660Z,24.60
2019-05-14T14:51:21.675Z,24.00
2019-05-14T14:54:10.229Z,24.60
2019-05-14T14:56:32.282Z,24.40
2019-05-14T14:59:05.005Z,24.90
2019-05-14T15:01:39.866Z,24.20
2019-05-14T15:04:13.682Z,25.20
2019-05-14T15:06:55.189Z,26.60
2019-05-14T15:09:29.884Z,25.40
2019-05-14T15:12:00.706Z,27.00
2019-05-14T15:14:30.713Z,25.40
2019-05-14T15:17:00.896Z,25.20
2019-05-14T15:19:30.912Z,23.60
2019-05-14T15:22:02.153Z,24.60
2019-05-14T15:24:32.375Z,24.60
2019-05-14T15:27:07.305Z,25.00
2019-05-14T15:29:34.229Z,26.30
2019-05-14T15:32:04.449Z,26.40
2019-05-14T15:34:34.443Z,26.50
2019-05-14T15:37:04.554Z,25.00
2019-05-14T15:39:34.929Z,26.00
2019-05-14T15:42:06.815Z,26.10
2019-05-14T15:44:48.588Z,28.00
2019-05-14T15:47:11.540Z,28.00
2019-05-14T15:49:41.779Z,28.10
2019-05-14T15:52:12.103Z,28.30
2019-05-14T15:54:46.645Z,27.40
2019-05-14T15:57:13.696Z,28.40
2019-05-14T15:59:43.953Z,27.20
2019-05-14T16:02:19.859Z,27.00
2019-05-14T16:04:48.234Z,26.00
2019-05-14T16:07:18.635Z,25.70
2019-05-14T16:09:49.388Z,26.90
2019-05-14T16:12:20.052Z,27.60
2019-05-14T16:14:50.405Z,28.30
2019-05-14T16:17:24.625Z,28.80
2019-05-14T16:19:52.203Z,27.70
2019-05-14T16:22:22.097Z,28.20
2019-05-14T16:24:56.851Z,29.20
2019-05-14T16:27:24.368Z,29.40
2019-05-14T16:29:54.537Z,29.30
2019-05-14T16:32:24.593Z,27.40
2019-05-14T16:34:54.720Z,27.40
2019-05-14T16:37:24.940Z,27.70
2019-05-14T16:39:54.816Z,28.80
2019-05-14T16:42:25.034Z,29.40
2019-05-14T16:44:55.300Z,29.50
2019-05-14T16:47:28.532Z,29.80
2019-05-14T16:49:59.159Z,30.60
2019-05-14T16:52:30.664Z,30.20
2019-05-14T16:55:17.278Z,30.40
2019-05-14T16:57:33.106Z,29.80
2019-05-14T17:00:03.931Z,31.60
2019-05-14T17:02:35.773Z,30.40
2019-05-14T17:05:09.213Z,30.60
2019-05-14T17:07:38.978Z,31.10
2019-05-14T17:10:09.393Z,31.00
2019-05-14T17:12:52.684Z,31.70
2019-05-14T17:15:14.346Z,32.60
2019-05-14T17:17:44.727Z,32.40
2019-05-14T17:20:15.057Z,32.30
2019-05-14T17:22:45.192Z,32.70
2019-05-14T17:25:26.529Z,34.10
2019-05-14T17:27:48.574Z,33.40
2019-05-14T17:30:19.284Z,32.90
2019-05-14T17:32:50.086Z,33.20
2019-05-14T17:35:20.554Z,34.30
2019-05-14T17:37:50.996Z,34.20
2019-05-14T17:40:21.430Z,34.60
2019-05-14T17:42:52.808Z,34.40
2019-05-14T17:45:23.172Z,34.50
2019-05-14T17:47:53.522Z,34.30
2019-05-14T17:50:23.862Z,34.60
2019-05-14T17:52:56.225Z,35.00
2019-05-14T17:55:29.474Z,34.80
2019-05-14T17:58:00.423Z,35.40
2019-05-14T18:00:31.146Z,35.60
2019-05-14T18:03:01.587Z,35.90
2019-05-14T18:05:31.911Z,36.90
2019-05-14T18:08:02.004Z,36.50
2019-05-14T18:10:32.520Z,37.10
2019-05-14T18:13:02.801Z,37.30
2019-05-14T18:15:32.735Z,36.70
2019-05-14T18:18:02.723Z,37.70
2019-05-14T18:20:33.095Z,38.30
2019-05-14T18:23:03.069Z,38.10
2019-05-14T18:25:32.997Z,37.70
2019-05-14T18:28:03.339Z,38.50
2019-05-14T18:30:35.141Z,38.10
2019-05-14T18:33:07.837Z,38.40
2019-05-14T18:35:44.090Z,39.90
2019-05-14T18:38:09.124Z,40.00
2019-05-14T18:40:40.447Z,39.80
2019-05-14T18:43:11.677Z,40.70
2019-05-14T18:45:42.139Z,40.80
2019-05-14T18:48:12.145Z,40.40
2019-05-14T18:50:42.463Z,41.40
2019-05-14T18:53:13.073Z,41.80
2019-05-14T18:55:45.238Z,42.00
2019-05-14T18:58:19.286Z,43.00
2019-05-14T19:00:47.921Z,42.30
2019-05-14T19:03:19.807Z,42.40
2019-05-14T19:05:51.324Z,42.90
2019-05-14T19:08:21.958Z,43.10
2019-05-14T19:10:54.658Z,43.10
2019-05-14T19:13:28.189Z,43.00
2019-05-14T19:15:59.228Z,43.60
2019-05-14T19:18:29.366Z,44.10
2019-05-14T19:20:59.576Z,45.40
2019-05-14T19:23:29.603Z,44.90
2019-05-14T19:26:00.040Z,45.30
2019-05-14T19:28:30.726Z,47.50
2019-05-14T19:31:00.828Z,48.20
2019-05-14T19:33:31.340Z,49.40
2019-05-14T19:36:05.037Z,49.20
2019-05-14T19:38:35.431Z,48.80
2019-05-14T19:41:08.359Z,47.30
2019-05-14T19:43:37.890Z,47.30
2019-05-14T19:46:09.674Z,47.00
2019-05-14T19:48:40.124Z,47.80
2019-05-14T19:51:10.374Z,48.00
2019-05-14T19:53:40.693Z,48.70
2019-05-14T19:56:10.647Z,48.10
2019-05-14T19:58:41.037Z,49.10
2019-05-14T20:01:12.218Z,49.70
2019-05-14T20:03:42.525Z,49.80
2019-05-14T20:06:12.976Z,49.70
2019-05-14T20:08:43.145Z,49.80
2019-05-14T20:11:13.133Z,49.90
2019-05-14T20:13:43.373Z,50.50
2019-05-14T20:16:14.606Z,51.20
2019-05-14T20:18:44.912Z,52.30
2019-05-14T20:21:14.829Z,52.90
2019-05-14T20:23:45.211Z,53.40
2019-05-14T20:26:15.617Z,54.10
2019-05-14T20:28:48.216Z,55.30
2019-05-14T20:31:18.214Z,55.20
2019-05-14T20:33:49.718Z,55.60
2019-05-14T20:36:19.964Z,55.90
2019-05-14T20:38:51.354Z,56.50
2019-05-14T20:41:21.703Z,57.00
2019-05-14T20:43:52.923Z,57.60
2019-05-14T20:46:22.861Z,57.70
2019-05-14T20:48:52.779Z,58.20
2019-05-14T20:51:22.948Z,58.50
2019-05-14T20:53:53.196Z,59.00
2019-05-14T20:56:23.483Z,59.20
2019-05-14T20:58:53.721Z,59.50
2019-05-14T21:01:23.685Z,59.70
2019-05-14T21:03:53.964Z,60.30
2019-05-14T21:06:24.294Z,60.80
2019-05-14T21:08:54.183Z,61.20
2019-05-14T21:11:24.362Z,61.30
2019-05-14T21:13:54.621Z,61.00
2019-05-14T21:16:24.842Z,60.10
2019-05-14T21:18:55.073Z,59.60
2019-05-14T21:21:25.283Z,59.90
2019-05-14T21:23:55.417Z,59.90
2019-05-14T21:26:25.697Z,58.60
2019-05-14T21:28:58.228Z,57.20
2019-05-14T21:31:28.602Z,56.10
2019-05-14T21:33:58.785Z,56.20
2019-05-14T21:36:29.105Z,55.90
2019-05-14T21:38:59.212Z,55.60
2019-05-14T21:41:29.397Z,55.00
2019-05-14T21:44:01.421Z,55.00
2019-05-14T21:46:31.742Z,55.50
2019-05-14T21:49:02.174Z,55.00
2019-05-14T21:51:32.094Z,55.50
2019-05-14T21:54:02.198Z,55.60
2019-05-14T21:56:32.376Z,56.40
2019-05-14T21:59:03.373Z,57.20
2019-05-14T22:01:33.739Z,57.60
2019-05-14T22:04:04.204Z,58.20
2019-05-14T22:06:34.273Z,58.40
2019-05-14T22:09:08.602Z,58.60
2019-05-14T22:11:39.270Z,58.80
2019-05-14T22:14:09.870Z,58.80
2019-05-14T22:16:40.091Z,59.30
2019-05-14T22:19:10.245Z,59.80
2019-05-14T22:21:41.923Z,60.20
2019-05-14T22:24:12.169Z,61.00
2019-05-14T22:26:42.338Z,61.10
2019-05-14T22:29:12.213Z,61.20
2019-05-14T22:31:42.381Z,61.50
2019-05-14T22:34:12.571Z,61.80
2019-05-14T22:36:42.682Z,62.30
2019-05-14T22:39:12.829Z,62.90
2019-05-14T22:41:43.051Z,63.50
2019-05-14T22:44:13.211Z,64.10
2019-05-14T22:46:43.132Z,64.90
2019-05-14T22:49:13.340Z,65.10
2019-05-14T22:51:43.469Z,66.00
2019-05-14T22:54:13.599Z,66.40
2019-05-14T22:56:43.674Z,66.20
2019-05-14T22:59:13.767Z,65.90
2019-05-14T23:01:43.873Z,66.20
2019-05-14T23:04:14.013Z,66.70
2019-05-14T23:06:44.227Z,67.10
2019-05-14T23:09:16.383Z,66.90
2019-05-14T23:11:47.909Z,67.10
2019-05-14T23:14:18.521Z,67.60
2019-05-14T23:16:49.227Z,68.10
2019-05-14T23:19:20.441Z,69.10
2019-05-14T23:21:50.531Z,69.40
2019-05-14T23:24:20.381Z,69.80
2019-05-14T23:26:50.276Z,70.20
2019-05-14T23:29:20.392Z,70.50
2019-05-14T23:31:50.541Z,71.00
2019-05-14T23:34:20.380Z,71.30
2019-05-14T23:36:50.640Z,71.50
2019-05-14T23:39:21.236Z,71.30
2019-05-14T23:41:52.259Z,71.30
2019-05-14T23:44:22.468Z,71.10
2019-05-14T23:46:52.613Z,71.30
2019-05-14T23:49:22.832Z,71.30
2019-05-14T23:51:53.044Z,71.20
2019-05-14T23:54:23.152Z,71.50
2019-05-14T23:56:53.252Z,72.10
2019-05-14T23:59:23.346Z,72.40
